Abbeville, AL

4:18 PM CST on December 07, 2019 (GMT -0600)
Martin Drive | | Change Station

Elev 387 ft 31.56 °N, 85.25 °W | Updated 11 seconds ago

Overcast
Overcast
60.4 °F
Feels Like 60.4 °F
N
0
Wind Variable Wind from NE
Gusts 0.0 mph

Today
High -- | Low -- °F
--% Chance of Precip.
Yesterday
High -- | Low -- °F
Precip. -- in
Pressure 30.20 in
Visibility 10.0 miles
Clouds Overcast 4300 ft
Dew Point 54 °F
Humidity 79%
Rainfall 0.00 in
Snow Depth Not available.
6:27 AM 4:37 PM
Waxing Gibbous, 82% visible
METAR KDHN 072153Z 06006KT 10SM OVC043 18/12 A3020 RMK AO2 SLP225 T01830117
Pressure 30.20 in
Visibility 10.0 miles
Clouds Overcast 4300 ft
Dew Point 54 °F
Humidity 79%
Rainfall 0.00 in
Snow Depth Not available.
6:27 AM 4:37 PM
Waxing Gibbous, 82% visible
METAR KDHN 072153Z 06006KT 10SM OVC043 18/12 A3020 RMK AO2 SLP225 T01830117

Get Severe Weather Alerts

Thanks for signing up!

Be on the lookout for a verification email in your inbox.

You'll start receiving the daily forecast at 6 AM.

×

10-Day Weather Forecast

Almanac

Astronomy

Dec. 07, 2019 Rise Set
Actual Time
Civil Twilight
Nautical Twilight
Astronomical Twilight
Moon
Length of Visible Light
Length of Day
Tomorrow will be .
, % of the Moon is Illuminated

Today's Extremes

State Highs State Lows

Community

WunderPhotos

Category 6

Welcome to Category 6. This is the collective home for Weather Underground's featured writeups by Dr. Jeff Masters (right), Bob Henson (left), Chris Burt, and other regular contributors.

Nearby

Air Quality

  Air Quality AQ Index Pollutant
Not available.

Snow Depth

Station Depth Elevation

Earthquake Activity

City Distance Mag. Time & Date
Minimum magnitude displayed is 2.5.

Coastal Water Temperatures

Place Temperature

Stations

Nearby Weather Stations

Station Location Temp. Windchill Dew Point Humidity Wind Precip. Elev Updated Type
                   

Watches & Warnings

There are currently no watches in effect.